Terminal Aerodrome Forecast
Issued by NWS

Home | Current Version | Previous Version | Text Only | Print | Product List | Glossary On
Versions: 1 2 3 4 5 6 7 8 9 10 11 12 13 14 15 16 17 18
000
FTUS41 KBTV 272320
TAFSLK
TAF
KSLK 272320Z 2800/2824 VRB03KT P6SM FEW060 SCT200
     FM280700 VRB03KT P6SM BKN090
     FM281400 22007KT P6SM VCSH BKN045 OVC070=

USA.gov is the U.S. government's official web portal to all federal, state and local government web resources and services.